Weather History for Perry, IA

Change the Weather History Date:

Monday, December 9, 2013

  Actual Average Record
Temperature  
Mean Temperature 2 °F -  
Max Temperature 10 °F 32 °F 56 °F (1984)
Min Temperature -6 °F 14 °F -18 °F (1958)
Degree Days  
Heating Degree Days 63    
Moisture  
Dew Point -5 °F    
Average Humidity 72    
Maximum Humidity 85    
Minimum Humidity 58    
Precipitation  
Precipitation 0.00 in - - ()
Sea Level Pressure  
Sea Level Pressure 30.18 in    
Wind  
Wind Speed 13 mph (WSW)    
Max Wind Speed 21 mph    
Max Gust Speed 28 mph    
Visibility 10 miles    
Events Snow    
Averages and records for this station are not official NWS values.
T = Trace of Precipitation, MM = Missing Value Source: NWS Daily Summary

Daily Weather History Graph

Daily Weather History Graph

Search for Another Location

Airport:

Trip Planner

Search our weather history database for the weather conditions in past years. The results will help you decide how hot, cold, wet, or windy it might be!

Date:

Astronomy

Dec. 09, 2013 Rise Set
Actual Time 7:32 AM CST 4:45 PM CST
Civil Twilight 7:01 AM CST 5:17 PM CST
Nautical Twilight 6:26 AM CST 5:52 PM CST
Astronomical Twilight 5:52 AM CST 6:25 PM CST
Moon 12:20 PM CST (12/9) No Moon Set
Length of Visible Light 10h 15m
Length of Day
9h 13m
Waxing Crescent, 51% of the Moon is Illuminated
Dec 9
Waxing Crescent
Dec 17
Full
Dec 25
Last Quarter
Jan 1
New
Jan 7
First Quarter

Hourly Weather History & Observations

Time (CST) Temp. Windchill Dew Point Humidity Pressure Visibility Wind Dir Wind Speed Gust Speed Precip Events Conditions
12:15 AM 10.8 °F -1.1 °F 6.6 °F 83% 30.08 in 10.0 mi WNW 8.1 mph - N/A   Clear
12:35 AM 9.0 °F -5.1 °F 5.0 °F 84% 30.08 in 10.0 mi WNW 10.4 mph - N/A   Clear
1:15 AM 7.3 °F -9.3 °F 3.2 °F 83% 30.09 in 10.0 mi WNW 13.8 mph - N/A   Clear
1:35 AM 5.2 °F -9.8 °F 1.2 °F 84% 30.10 in 10.0 mi West 10.4 mph - N/A   Clear
1:55 AM 3.2 °F -12.2 °F -0.4 °F 85% 30.10 in 10.0 mi West 10.4 mph - N/A   Clear
2:15 AM 1.8 °F -15.7 °F -2.2 °F 83% 30.11 in 10.0 mi West 12.7 mph - N/A   Clear
2:35 AM 0.5 °F -16.5 °F -3.3 °F 84% 30.12 in 10.0 mi West 11.5 mph - N/A   Clear
2:55 AM 1.6 °F -14.2 °F -2.2 °F 84% 30.12 in 10.0 mi West 10.4 mph - N/A   Clear
3:15 AM -0.6 °F -17.8 °F -4.2 °F 85% 30.12 in 10.0 mi West 11.5 mph - N/A   Clear
3:35 AM -2.0 °F -20.5 °F -5.6 °F 85% 30.13 in 10.0 mi West 12.7 mph - N/A   Clear
3:55 AM -3.3 °F -22.1 °F -6.9 °F 85% 30.13 in 10.0 mi West 12.7 mph - N/A   Clear
4:15 AM -1.5 °F -20.5 °F -5.3 °F 84% 30.13 in 10.0 mi West 13.8 mph - N/A   Clear
4:35 AM -0.2 °F -19.6 °F -3.8 °F 85% 30.12 in 10.0 mi West 15.0 mph - N/A   Clear
4:55 AM 3.2 °F -13.1 °F -0.6 °F 84% 30.12 in 10.0 mi WNW 11.5 mph - N/A   Clear
5:15 AM 3.0 °F -14.1 °F -1.8 °F 80% 30.13 in 10.0 mi West 12.7 mph - N/A   Clear
5:35 AM 1.6 °F -18.6 °F -2.9 °F 81% 30.15 in 10.0 mi West 17.3 mph - N/A   Clear
5:55 AM 1.0 °F -19.3 °F -4.0 °F 79% 30.17 in 10.0 mi West 17.3 mph - N/A   Clear
6:15 AM 1.0 °F -19.9 °F -4.5 °F 77% 30.18 in 10.0 mi West 18.4 mph - N/A   Clear
6:35 AM 1.2 °F -19.6 °F -5.3 °F 74% 30.18 in 10.0 mi WNW 18.4 mph 23.0 mph N/A   Clear
6:55 AM 0.5 °F -19.4 °F -6.5 °F 72% 30.20 in 10.0 mi West 16.1 mph - N/A   Clear
7:15 AM -0.4 °F -21.2 °F -7.4 °F 72% 30.19 in 10.0 mi WNW 17.3 mph - N/A   Clear
7:35 AM -0.4 °F -20.5 °F -8.0 °F 70% 30.21 in 10.0 mi WNW 16.1 mph - N/A   Clear
7:55 AM -1.1 °F -21.5 °F -8.5 °F 71% 30.21 in 10.0 mi WNW 16.1 mph - N/A   Clear
8:15 AM -1.3 °F -21.0 °F -9.0 °F 70% 30.22 in 10.0 mi WNW 15.0 mph 20.7 mph N/A   Clear
8:35 AM -0.9 °F -21.2 °F -8.9 °F 69% 30.23 in 10.0 mi WNW 16.1 mph 21.9 mph N/A   Clear
8:55 AM -0.4 °F -19.9 °F -8.7 °F 68% 30.24 in 10.0 mi WNW 15.0 mph 21.9 mph N/A   Clear
9:15 AM -0.2 °F -20.3 °F -8.5 °F 68% 30.24 in 10.0 mi WNW 16.1 mph 20.7 mph N/A   Clear
9:35 AM 0.5 °F -20.6 °F -8.5 °F 66% 30.26 in 2.0 mi WNW 18.4 mph 24.2 mph N/A   Haze
9:55 AM 0.9 °F -19.5 °F -8.0 °F 66% 30.26 in 1.2 mi WNW 17.3 mph 24.2 mph N/A Snow Light Snow
10:15 AM 1.4 °F -17.6 °F -7.6 °F 66% 30.26 in 3.0 mi WNW 15.0 mph 25.3 mph N/A   Haze
10:35 AM 2.3 °F -18.2 °F -6.9 °F 66% 30.28 in 7.0 mi WNW 18.4 mph 26.5 mph N/A   Clear
10:55 AM 3.2 °F -16.5 °F -6.0 °F 66% 30.28 in 10.0 mi WNW 17.3 mph 20.7 mph N/A   Clear
11:15 AM 3.9 °F -16.6 °F -6.0 °F 64% 30.28 in 7.0 mi WNW 19.6 mph 27.6 mph N/A   Clear
11:35 AM 4.8 °F -14.4 °F -4.7 °F 65% 30.28 in 7.0 mi WNW 17.3 mph - N/A   Clear
11:55 AM 5.5 °F -14.0 °F -4.4 °F 64% 30.28 in 10.0 mi West 18.4 mph - N/A   Clear
12:15 PM 5.7 °F -14.8 °F -4.0 °F 64% 30.27 in 10.0 mi West 20.7 mph - N/A   Clear
12:35 PM 6.1 °F -12.2 °F -4.0 °F 63% 30.26 in 10.0 mi West 16.1 mph - N/A   Clear
12:55 PM 6.8 °F -12.4 °F -3.8 °F 62% 30.26 in 10.0 mi West 18.4 mph - N/A   Clear
1:15 PM 7.2 °F -10.8 °F -3.6 °F 61% 30.26 in 10.0 mi West 16.1 mph - N/A   Clear
1:35 PM 7.9 °F -8.0 °F -3.3 °F 60% 30.24 in 10.0 mi WNW 12.7 mph - N/A   Clear
1:55 PM 8.1 °F -7.7 °F -3.5 °F 59% 30.25 in 10.0 mi West 12.7 mph - N/A   Clear
2:15 PM 8.4 °F -5.7 °F -3.3 °F 59% 30.25 in 10.0 mi West 10.4 mph - N/A   Clear
2:35 PM 8.4 °F -5.7 °F -3.3 °F 59% 30.24 in 10.0 mi West 10.4 mph - N/A   Clear
2:55 PM 8.6 °F -4.7 °F -3.5 °F 58% 30.24 in 10.0 mi West 9.2 mph - N/A   Clear
3:15 PM 8.6 °F -4.7 °F -2.7 °F 60% 30.24 in 10.0 mi West 9.2 mph - N/A   Clear
3:35 PM 8.2 °F -0.3 °F -3.3 °F 59% 30.24 in 10.0 mi WSW 4.6 mph - N/A   Clear
3:55 PM 7.0 °F -3.3 °F -3.6 °F 62% 30.23 in 10.0 mi WSW 5.8 mph - N/A   Clear
4:15 PM 5.2 °F -6.7 °F -4.5 °F 64% 30.23 in 10.0 mi WSW 6.9 mph - N/A   Clear
4:35 PM 3.6 °F -8.7 °F -6.2 °F 64% 30.23 in 10.0 mi SW 6.9 mph - N/A   Clear
4:55 PM 0.3 °F -16.7 °F -7.4 °F 70% 30.22 in 10.0 mi SSW 11.5 mph - N/A   Clear
5:15 PM 2.8 °F -11.7 °F -4.7 °F 71% 30.22 in 10.0 mi SSW 9.2 mph - N/A   Clear
5:35 PM -1.7 °F -17.3 °F -7.2 °F 77% 30.22 in 10.0 mi SSW 9.2 mph - N/A   Clear
5:55 PM -2.7 °F -18.6 °F -8.7 °F 76% 30.21 in 10.0 mi SSW 9.2 mph - N/A   Clear
6:15 PM 0.5 °F -14.6 °F -6.0 °F 74% 30.21 in 10.0 mi SSW 9.2 mph - N/A   Clear
6:35 PM -1.8 °F -17.5 °F -8.3 °F 74% 30.20 in 10.0 mi SSW 9.2 mph - N/A   Clear
6:55 PM -2.9 °F -18.8 °F -9.2 °F 74% 30.19 in 10.0 mi SSW 9.2 mph - N/A   Clear
7:15 PM -2.7 °F -13.1 °F -9.2 °F 74% 30.19 in 10.0 mi South 4.6 mph - N/A   Clear
7:35 PM -1.8 °F -17.5 °F -7.1 °F 78% 30.18 in 10.0 mi SW 9.2 mph - N/A   Clear
7:55 PM -0.4 °F -16.7 °F -6.7 °F 75% 30.18 in 10.0 mi SW 10.4 mph - N/A   Clear
8:15 PM -4.0 °F -21.2 °F -9.9 °F 76% 30.16 in 10.0 mi South 10.4 mph - N/A   Clear
8:35 PM -4.9 °F -20.1 °F -11.0 °F 75% 30.16 in 10.0 mi South 8.1 mph - N/A   Clear
8:55 PM -6.0 °F -22.6 °F -11.0 °F 79% 30.13 in 10.0 mi South 9.2 mph - N/A   Clear
9:15 PM -2.9 °F -18.8 °F -9.0 °F 75% 30.12 in 10.0 mi South 9.2 mph - N/A   Clear
9:35 PM -4.5 °F -19.7 °F -10.3 °F 76% 30.12 in 10.0 mi SSW 8.1 mph - N/A   Clear
9:55 PM -5.6 °F -22.2 °F -10.8 °F 78% 30.11 in 10.0 mi South 9.2 mph - N/A   Clear
10:15 PM -3.3 °F -20.3 °F -9.2 °F 76% 30.11 in 10.0 mi SSE 10.4 mph - N/A   Clear
10:35 PM 7.0 °F -11.0 °F -2.6 °F 65% 30.09 in 10.0 mi SW 16.1 mph - N/A   Clear
10:55 PM 7.7 °F -12.2 °F -2.4 °F 63% 30.07 in 10.0 mi SW 20.7 mph - N/A   Clear
11:15 PM 8.1 °F -11.2 °F -2.2 °F 63% 30.06 in 10.0 mi SSW 19.6 mph - N/A   Clear
11:35 PM 7.9 °F -11.9 °F -2.6 °F 62% 30.04 in 10.0 mi SSW 20.7 mph - N/A   Scattered Clouds
11:55 PM 9.0 °F -10.5 °F -1.5 °F 63% 30.03 in 10.0 mi SSW 20.7 mph - N/A   Overcast